createdAt,value
2022-12-23T00:00:43.126Z,12.30
2022-12-23T00:03:10.084Z,12.30
2022-12-23T00:05:40.745Z,12.30
2022-12-23T00:08:08.314Z,12.30
2022-12-23T00:10:39.283Z,12.30
2022-12-23T00:13:25.307Z,12.30
2022-12-23T00:16:00.564Z,12.30
2022-12-23T00:18:27.431Z,12.20
2022-12-23T00:21:09.458Z,12.20
2022-12-23T00:23:42.168Z,12.30
2022-12-23T00:26:17.904Z,12.30
2022-12-23T00:28:45.326Z,12.30
2022-12-23T00:31:44.810Z,12.30
2022-12-23T00:34:18.667Z,12.30
2022-12-23T00:36:55.730Z,12.30
2022-12-23T00:39:44.576Z,12.20
2022-12-23T00:42:38.627Z,12.20
2022-12-23T00:45:18.772Z,12.20
2022-12-23T00:51:17.694Z,12.20
2022-12-23T00:53:48.241Z,12.20
2022-12-23T00:56:19.732Z,12.20
2022-12-23T00:58:51.367Z,12.20
2022-12-23T01:01:37.565Z,12.20
2022-12-23T01:04:27.950Z,12.20
2022-12-23T01:07:02.233Z,12.20
2022-12-23T01:09:29.932Z,12.20
2022-12-23T01:11:58.504Z,12.20
2022-12-23T01:14:34.890Z,12.20
2022-12-23T01:17:02.682Z,12.20
2022-12-23T01:19:30.159Z,12.20
2022-12-23T01:22:00.839Z,12.20
2022-12-23T01:24:30.735Z,12.20
2022-12-23T01:26:59.569Z,12.20
2022-12-23T01:29:27.171Z,12.20
2022-12-23T01:31:55.124Z,12.20
2022-12-23T01:34:23.540Z,12.30
2022-12-23T01:36:51.107Z,12.30
2022-12-23T01:39:20.131Z,12.30
2022-12-23T01:42:14.052Z,12.30
2022-12-23T01:45:04.636Z,12.30
2022-12-23T01:47:47.287Z,12.30
2022-12-23T01:50:24.514Z,12.30
2022-12-23T01:53:06.959Z,12.30
2022-12-23T01:55:53.864Z,12.30
2022-12-23T01:58:41.254Z,12.30
2022-12-23T02:01:28.381Z,12.30
2022-12-23T02:04:01.085Z,12.30
2022-12-23T02:06:54.731Z,12.30
2022-12-23T02:09:34.572Z,12.30
2022-12-23T02:12:14.931Z,12.30
2022-12-23T02:15:13.714Z,12.40
2022-12-23T02:17:49.655Z,12.40
2022-12-23T02:20:20.402Z,12.40
2022-12-23T02:23:28.288Z,12.30
2022-12-23T02:26:13.393Z,12.30
2022-12-23T02:29:18.772Z,12.30
2022-12-23T02:32:06.754Z,12.30
2022-12-23T02:34:54.684Z,12.30
2022-12-23T02:37:42.396Z,12.20
2022-12-23T02:40:51.147Z,12.20
2022-12-23T02:43:55.207Z,12.20
2022-12-23T02:46:38.631Z,12.20
2022-12-23T02:49:25.111Z,12.20
2022-12-23T02:52:01.126Z,12.20
2022-12-23T02:54:33.649Z,12.20
2022-12-23T02:57:05.405Z,12.20
2022-12-23T02:59:52.168Z,12.20
2022-12-23T03:02:22.933Z,12.20
2022-12-23T03:07:44.826Z,12.10
2022-12-23T03:10:40.189Z,12.10
2022-12-23T03:13:28.773Z,12.20
2022-12-23T03:16:09.303Z,12.10
2022-12-23T03:19:25.252Z,12.10
2022-12-23T03:22:37.707Z,12.10
2022-12-23T03:25:18.116Z,12.10
2022-12-23T03:28:04.194Z,12.00
2022-12-23T03:30:38.569Z,12.10
2022-12-23T03:33:20.464Z,12.10
2022-12-23T03:35:58.047Z,12.00
2022-12-23T03:38:27.646Z,12.00
2022-12-23T03:41:06.115Z,12.00
2022-12-23T03:43:44.802Z,12.00
2022-12-23T03:47:04.255Z,12.10
2022-12-23T03:49:56.050Z,12.10
2022-12-23T03:52:41.993Z,12.10
2022-12-23T03:55:27.723Z,12.10
2022-12-23T03:58:24.063Z,12.10
2022-12-23T04:01:18.008Z,12.10
2022-12-23T04:04:00.230Z,12.10
2022-12-23T04:06:42.656Z,12.10
2022-12-23T04:09:24.476Z,12.10
2022-12-23T04:12:02.928Z,12.10
2022-12-23T04:14:31.306Z,12.10
2022-12-23T04:16:59.989Z,12.10
2022-12-23T04:19:28.685Z,12.10
2022-12-23T04:22:01.707Z,12.10
2022-12-23T04:25:23.388Z,12.10
2022-12-23T04:27:57.297Z,12.10
2022-12-23T04:30:34.001Z,12.10
2022-12-23T04:33:06.138Z,12.00
2022-12-23T04:35:42.594Z,12.00
2022-12-23T04:38:10.661Z,12.10
2022-12-23T04:40:38.230Z,12.10
2022-12-23T04:43:06.318Z,12.10
2022-12-23T04:45:37.607Z,12.10
2022-12-23T04:48:08.149Z,12.00
2022-12-23T04:50:43.505Z,12.10
2022-12-23T04:53:11.990Z,12.10
2022-12-23T04:55:39.939Z,12.10
2022-12-23T04:58:08.203Z,12.10
2022-12-23T05:00:39.870Z,12.10
2022-12-23T05:03:08.559Z,12.10
2022-12-23T05:05:36.813Z,12.10
2022-12-23T05:08:09.257Z,12.10
2022-12-23T05:10:40.413Z,12.10
2022-12-23T05:13:07.987Z,12.10
2022-12-23T05:15:35.363Z,12.10
2022-12-23T05:18:03.685Z,12.10
2022-12-23T05:20:36.213Z,12.10
2022-12-23T05:23:07.839Z,12.10
2022-12-23T05:25:52.677Z,12.00
2022-12-23T05:28:24.116Z,12.00
2022-12-23T05:31:17.831Z,12.00
2022-12-23T05:33:45.788Z,12.00
2022-12-23T05:36:13.650Z,12.00
2022-12-23T05:38:41.050Z,12.00
2022-12-23T05:41:08.919Z,12.00
2022-12-23T05:43:37.194Z,12.00
2022-12-23T05:46:08.958Z,12.00
2022-12-23T05:48:38.666Z,12.00
2022-12-23T05:51:11.449Z,12.00
2022-12-23T05:53:41.943Z,12.00
2022-12-23T05:56:12.308Z,12.00
2022-12-23T05:58:40.121Z,12.00
2022-12-23T06:01:09.209Z,12.00
2022-12-23T06:03:46.458Z,12.10
2022-12-23T06:06:17.938Z,12.10
2022-12-23T06:08:55.868Z,12.10
2022-12-23T06:11:41.071Z,12.10
2022-12-23T06:14:47.762Z,12.10
2022-12-23T06:18:11.527Z,12.20
2022-12-23T07:04:40.432Z,12.20
2022-12-23T07:07:07.329Z,12.20
2022-12-23T07:09:34.151Z,12.30
2022-12-23T07:12:03.067Z,12.30
2022-12-23T07:14:29.944Z,12.30
2022-12-23T07:16:59.948Z,12.40
2022-12-23T07:19:26.981Z,12.40
2022-12-23T07:21:56.412Z,12.40
2022-12-23T07:24:23.270Z,12.40
2022-12-23T07:26:51.455Z,12.40
2022-12-23T07:29:18.395Z,12.40
2022-12-23T07:31:45.444Z,12.40
2022-12-23T07:34:12.611Z,12.40
2022-12-23T07:36:39.560Z,12.40
2022-12-23T07:39:06.587Z,12.40
2022-12-23T07:41:39.130Z,12.40
2022-12-23T07:44:10.820Z,12.40
2022-12-23T07:46:38.754Z,12.40
2022-12-23T07:49:05.902Z,12.40
2022-12-23T07:51:32.821Z,12.40
2022-12-23T07:53:59.793Z,12.40
2022-12-23T07:56:26.643Z,12.40
2022-12-23T07:58:54.379Z,12.40
2022-12-23T08:01:22.422Z,12.40
2022-12-23T08:03:49.769Z,12.40
2022-12-23T08:06:17.283Z,12.40
2022-12-23T08:08:46.086Z,12.40
2022-12-23T08:11:18.204Z,12.40
2022-12-23T08:13:46.227Z,12.40
2022-12-23T08:16:13.402Z,12.40
2022-12-23T08:18:43.363Z,12.40
2022-12-23T08:21:16.892Z,12.40
2022-12-23T08:23:43.909Z,12.50
2022-12-23T08:26:13.755Z,12.50
2022-12-23T08:28:42.195Z,12.50
2022-12-23T08:31:10.549Z,12.50
2022-12-23T08:33:38.893Z,12.50
2022-12-23T08:36:08.571Z,12.50
2022-12-23T08:38:36.539Z,12.50
2022-12-23T08:41:08.056Z,12.50
2022-12-23T08:43:36.129Z,12.50
2022-12-23T08:46:03.892Z,12.50
2022-12-23T08:48:31.657Z,12.50
2022-12-23T08:51:04.474Z,12.50
2022-12-23T08:53:31.940Z,12.50
2022-12-23T08:56:09.334Z,12.50
2022-12-23T08:58:38.286Z,12.50
2022-12-23T09:01:07.335Z,12.50
2022-12-23T09:03:35.172Z,12.50
2022-12-23T09:06:07.271Z,12.50
2022-12-23T09:08:34.573Z,12.50
2022-12-23T09:11:02.087Z,12.50
2022-12-23T09:13:35.078Z,12.50
2022-12-23T09:16:03.287Z,12.50
2022-12-23T09:18:30.358Z,12.50
2022-12-23T09:21:05.489Z,12.50
2022-12-23T09:23:33.447Z,12.50
2022-12-23T09:26:00.512Z,12.50
2022-12-23T09:28:27.597Z,12.50
2022-12-23T09:30:54.799Z,12.60
2022-12-23T09:33:22.016Z,12.60
2022-12-23T09:35:49.327Z,12.60
2022-12-23T09:38:19.128Z,12.70
2022-12-23T09:40:46.551Z,12.60
2022-12-23T09:43:38.024Z,12.70
2022-12-23T09:46:20.097Z,12.70
2022-12-23T09:49:02.711Z,12.70
2022-12-23T09:51:31.413Z,12.70
2022-12-23T09:54:48.361Z,12.70
2022-12-23T09:57:29.128Z,12.70
2022-12-23T10:00:16.889Z,12.70
2022-12-23T10:03:16.506Z,12.70
2022-12-23T10:06:01.116Z,12.80
2022-12-23T10:08:36.293Z,12.80
2022-12-23T10:11:25.063Z,12.80
2022-12-23T10:13:57.502Z,12.80
2022-12-23T10:16:29.724Z,12.80
2022-12-23T10:19:01.810Z,12.80
2022-12-23T10:21:53.572Z,12.80
2022-12-23T10:24:26.183Z,12.80
2022-12-23T10:27:00.920Z,12.80
2022-12-23T10:29:32.606Z,12.80
2022-12-23T10:32:17.864Z,12.70
2022-12-23T10:34:52.488Z,12.70
2022-12-23T10:37:51.687Z,12.70
2022-12-23T10:40:30.593Z,12.80
2022-12-23T10:43:16.428Z,12.70
2022-12-23T10:45:55.443Z,12.70
2022-12-23T10:49:00.411Z,12.70
2022-12-23T10:51:36.660Z,12.70
2022-12-23T10:54:11.984Z,12.70
2022-12-23T10:56:39.050Z,12.70
2022-12-23T10:59:12.247Z,12.70
2022-12-23T11:01:41.300Z,12.70
2022-12-23T11:04:14.646Z,12.70
2022-12-23T11:06:46.671Z,12.70
2022-12-23T11:09:20.485Z,12.70
2022-12-23T11:12:06.456Z,12.70
2022-12-23T11:14:50.474Z,12.70
2022-12-23T11:17:29.631Z,12.70
2022-12-23T11:20:07.983Z,12.70
2022-12-23T11:22:34.972Z,12.70
2022-12-23T11:25:34.776Z,12.70
2022-12-23T11:28:15.907Z,12.70
2022-12-23T11:30:56.626Z,12.60
2022-12-23T11:33:29.037Z,12.60
2022-12-23T11:36:24.955Z,12.60
2022-12-23T11:38:54.583Z,12.60
2022-12-23T11:41:27.794Z,12.60
2022-12-23T11:44:07.424Z,12.50
2022-12-23T11:46:37.179Z,12.50
2022-12-23T11:49:23.294Z,12.50
2022-12-23T11:52:11.377Z,12.50
2022-12-23T11:54:39.629Z,12.50
2022-12-23T11:57:19.682Z,12.50
2022-12-23T11:59:50.313Z,12.50
2022-12-23T12:02:39.849Z,12.50
2022-12-23T12:05:34.783Z,12.60
2022-12-23T12:08:05.885Z,12.60
2022-12-23T12:10:38.590Z,12.60
2022-12-23T12:13:26.023Z,12.60
2022-12-23T12:16:07.826Z,12.50
2022-12-23T12:18:36.732Z,12.50
2022-12-23T12:21:09.592Z,12.50
2022-12-23T12:23:42.064Z,12.50
2022-12-23T12:26:19.360Z,12.50
2022-12-23T12:28:50.918Z,12.50
2022-12-23T12:31:49.734Z,12.50
2022-12-23T12:34:30.269Z,12.50
2022-12-23T12:37:43.283Z,12.40
2022-12-23T12:40:34.222Z,12.40
2022-12-23T12:43:22.819Z,12.40
2022-12-23T12:46:04.461Z,12.40
2022-12-23T12:48:59.867Z,12.30
2022-12-23T12:51:51.326Z,12.30
2022-12-23T12:54:35.302Z,12.30
2022-12-23T12:57:05.600Z,12.40
2022-12-23T12:59:38.133Z,12.40
2022-12-23T13:02:46.703Z,12.40
2022-12-23T13:05:26.921Z,12.40
2022-12-23T13:08:12.001Z,12.40
2022-12-23T13:10:51.602Z,12.40
2022-12-23T13:13:33.959Z,12.40
2022-12-23T13:16:16.486Z,12.40
2022-12-23T13:18:50.528Z,12.40
2022-12-23T13:21:37.432Z,12.40
2022-12-23T13:24:21.482Z,12.40
2022-12-23T13:27:06.061Z,12.40
2022-12-23T13:29:58.250Z,12.40
2022-12-23T13:32:45.223Z,12.50
2022-12-23T13:35:21.527Z,12.50
2022-12-23T13:37:54.779Z,12.50
2022-12-23T13:40:54.661Z,12.60
2022-12-23T13:43:25.369Z,12.60
2022-12-23T13:45:55.760Z,12.60
2022-12-23T13:48:52.551Z,12.60
2022-12-23T13:51:33.057Z,12.60
2022-12-23T13:54:14.220Z,12.60
2022-12-23T13:56:57.048Z,12.70
2022-12-23T13:59:38.860Z,12.80
2022-12-23T14:02:37.491Z,12.80
2022-12-23T14:05:26.298Z,12.90
2022-12-23T14:07:54.574Z,12.90
2022-12-23T14:10:24.485Z,12.90
2022-12-23T14:12:53.180Z,12.90
2022-12-23T14:15:38.557Z,12.80
2022-12-23T14:18:33.645Z,12.80
2022-12-23T14:21:15.669Z,12.80
2022-12-23T14:24:04.993Z,12.80
2022-12-23T14:27:08.243Z,12.70
2022-12-23T14:29:49.885Z,12.70
2022-12-23T14:32:24.004Z,12.70
2022-12-23T14:35:19.295Z,12.70
2022-12-23T14:38:05.337Z,12.70
2022-12-23T14:40:38.281Z,12.70
2022-12-23T14:43:26.213Z,12.80
2022-12-23T14:46:01.287Z,12.80
2022-12-23T14:48:34.500Z,12.80
2022-12-23T14:51:04.212Z,12.70
2022-12-23T14:53:33.436Z,12.70
2022-12-23T14:56:16.955Z,12.70
2022-12-23T14:59:18.936Z,12.70
2022-12-23T15:01:58.326Z,12.70
2022-12-23T15:04:35.360Z,12.70
2022-12-23T15:07:09.196Z,12.70
2022-12-23T15:09:40.520Z,12.60
2022-12-23T15:12:18.400Z,12.60
2022-12-23T15:14:51.292Z,12.60
2022-12-23T15:17:30.820Z,12.60
2022-12-23T15:20:24.756Z,12.60
2022-12-23T15:22:52.820Z,12.60
2022-12-23T15:25:32.490Z,12.60
2022-12-23T15:28:02.692Z,12.60
2022-12-23T15:30:36.425Z,12.60
2022-12-23T15:33:27.926Z,12.60
2022-12-23T15:35:55.017Z,12.50
2022-12-23T15:38:25.157Z,12.50
2022-12-23T15:41:03.982Z,12.50
2022-12-23T15:43:31.346Z,12.50
2022-12-23T15:46:31.571Z,12.50
2022-12-23T15:48:58.724Z,12.50
2022-12-23T15:52:05.064Z,12.50
2022-12-23T15:54:27.077Z,12.50
2022-12-23T15:56:56.356Z,12.40
2022-12-23T15:59:38.535Z,12.40
2022-12-23T16:05:39.330Z,12.40
2022-12-23T16:08:19.363Z,12.40
2022-12-23T16:11:19.935Z,12.40
2022-12-23T16:13:59.266Z,12.40
2022-12-23T16:16:34.088Z,12.40
2022-12-23T16:19:01.270Z,12.40
2022-12-23T16:21:32.706Z,12.40
2022-12-23T16:24:01.117Z,12.40
2022-12-23T16:26:28.098Z,12.50
2022-12-23T16:28:59.387Z,12.50
2022-12-23T16:31:26.717Z,12.50
2022-12-23T16:34:04.115Z,12.50
2022-12-23T16:36:31.198Z,12.60
2022-12-23T16:39:07.394Z,12.60
2022-12-23T16:41:36.441Z,12.60
2022-12-23T16:44:07.104Z,12.60
2022-12-23T16:46:38.822Z,12.50
2022-12-23T16:49:11.117Z,12.50
2022-12-23T16:51:41.180Z,12.50
2022-12-23T16:54:17.507Z,12.50
2022-12-23T16:56:46.999Z,12.50
2022-12-23T16:59:14.850Z,12.40
2022-12-23T17:01:46.725Z,12.50
2022-12-23T17:04:14.555Z,12.50
2022-12-23T17:06:42.035Z,12.50
2022-12-23T17:09:10.235Z,12.50
2022-12-23T17:11:41.648Z,12.50
2022-12-23T17:14:18.266Z,12.50
2022-12-23T17:16:45.929Z,12.50
2022-12-23T17:19:13.986Z,12.50
2022-12-23T17:21:43.410Z,12.60
2022-12-23T17:24:24.127Z,12.60
2022-12-23T17:26:51.956Z,12.60
2022-12-23T17:29:19.187Z,12.60
2022-12-23T17:31:47.687Z,12.60
2022-12-23T17:34:22.877Z,12.60
2022-12-23T17:36:51.232Z,12.70
2022-12-23T17:39:19.846Z,12.70
2022-12-23T17:41:47.254Z,12.70
2022-12-23T17:44:15.935Z,12.70
2022-12-23T17:46:43.171Z,12.70
2022-12-23T17:49:10.136Z,12.80
2022-12-23T17:51:40.107Z,12.80
2022-12-23T17:54:08.451Z,12.80
2022-12-23T17:56:35.509Z,12.80
2022-12-23T17:59:02.566Z,12.70
2022-12-23T18:01:31.898Z,12.70
2022-12-23T18:04:00.419Z,12.70
2022-12-23T18:06:28.980Z,12.70
2022-12-23T18:08:59.182Z,12.70
2022-12-23T18:11:37.055Z,12.70
2022-12-23T18:14:04.458Z,12.70
2022-12-23T18:16:31.516Z,12.70
2022-12-23T18:18:58.845Z,12.70
2022-12-23T18:21:28.033Z,12.70
2022-12-23T18:23:57.779Z,12.70
2022-12-23T18:26:25.274Z,12.70
2022-12-23T18:28:54.237Z,12.70
2022-12-23T18:31:24.325Z,12.70
2022-12-23T18:33:52.825Z,12.70
2022-12-23T18:36:29.129Z,12.70
2022-12-23T18:38:57.336Z,12.70
2022-12-23T18:41:26.201Z,12.70
2022-12-23T18:43:53.763Z,12.70
2022-12-23T18:46:21.869Z,12.70
2022-12-23T18:48:49.195Z,12.70
2022-12-23T18:51:17.755Z,12.70
2022-12-23T18:53:48.667Z,12.70
2022-12-23T18:56:20.202Z,12.70
2022-12-23T18:58:47.487Z,12.70
2022-12-23T19:01:16.313Z,12.70
2022-12-23T19:03:43.694Z,12.70
2022-12-23T19:06:13.528Z,12.70
2022-12-23T19:08:41.595Z,12.70
2022-12-23T19:11:17.371Z,12.70
2022-12-23T19:13:45.247Z,12.70
2022-12-23T19:16:17.429Z,12.70
2022-12-23T19:18:45.359Z,12.70
2022-12-23T19:21:12.632Z,12.70
2022-12-23T19:23:41.349Z,12.70
2022-12-23T19:26:12.904Z,12.70
2022-12-23T19:28:42.693Z,12.60
2022-12-23T19:31:12.755Z,12.60
2022-12-23T19:33:41.396Z,12.60
2022-12-23T19:36:59.712Z,12.60
2022-12-23T19:39:27.016Z,12.60
2022-12-23T19:41:53.913Z,12.60
2022-12-23T19:44:21.077Z,12.60
2022-12-23T19:46:49.216Z,12.60
2022-12-23T19:49:20.193Z,12.60
2022-12-23T19:51:48.038Z,12.60
2022-12-23T19:54:15.138Z,12.60
2022-12-23T19:56:42.047Z,12.60
2022-12-23T19:59:09.391Z,12.60
2022-12-23T20:01:37.004Z,12.60
2022-12-23T20:04:04.124Z,12.60
2022-12-23T20:06:34.692Z,12.60
2022-12-23T20:09:04.451Z,12.60
2022-12-23T20:11:37.830Z,12.60
2022-12-23T20:14:06.025Z,12.60
2022-12-23T20:16:34.559Z,12.60
2022-12-23T20:19:03.574Z,12.60
2022-12-23T20:21:30.663Z,12.60
2022-12-23T20:23:57.679Z,12.60
2022-12-23T20:26:29.127Z,12.60
2022-12-23T20:28:56.981Z,12.60
2022-12-23T20:31:26.109Z,12.60
2022-12-23T20:33:54.398Z,12.60
2022-12-23T20:36:27.698Z,12.60
2022-12-23T20:38:56.137Z,12.60
2022-12-23T20:41:29.004Z,12.60
2022-12-23T20:44:32.558Z,12.60
2022-12-23T20:46:43.851Z,12.60
2022-12-23T20:49:11.137Z,12.60
2022-12-23T20:51:37.968Z,12.60
2022-12-23T20:54:05.283Z,12.60
2022-12-23T20:56:35.339Z,12.60
2022-12-23T20:59:03.873Z,12.60
2022-12-23T21:01:39.085Z,12.50
2022-12-23T21:04:09.448Z,12.50
2022-12-23T21:06:36.796Z,12.50
2022-12-23T21:09:07.146Z,12.50
2022-12-23T21:11:40.199Z,12.50
2022-12-23T21:14:08.053Z,12.40
2022-12-23T21:16:39.403Z,12.40
2022-12-23T21:19:13.286Z,12.40
2022-12-23T21:21:40.310Z,12.30
2022-12-23T21:24:07.397Z,12.30
2022-12-23T21:26:35.929Z,12.30
2022-12-23T21:29:06.814Z,12.30
2022-12-23T21:31:50.565Z,12.30
2022-12-23T21:34:18.781Z,12.30
2022-12-23T21:36:46.796Z,12.30
2022-12-23T21:39:20.897Z,12.30
2022-12-23T21:41:51.631Z,12.30
2022-12-23T21:44:26.448Z,12.30
2022-12-23T21:46:57.342Z,12.30
2022-12-23T21:49:24.774Z,12.40
2022-12-23T21:51:59.829Z,12.30
2022-12-23T21:54:32.773Z,12.40
2022-12-23T21:57:00.064Z,12.40
2022-12-23T21:59:34.914Z,12.40
2022-12-23T22:02:07.297Z,12.30
2022-12-23T22:04:40.713Z,12.20
2022-12-23T22:07:13.611Z,12.20
2022-12-23T22:09:45.980Z,12.10
2022-12-23T22:12:22.452Z,12.10
2022-12-23T22:14:49.804Z,12.10
2022-12-23T22:19:58.847Z,12.10
2022-12-23T22:22:31.653Z,12.10
2022-12-23T22:25:07.356Z,12.10
2022-12-23T22:27:34.850Z,12.10
2022-12-23T22:30:02.286Z,12.10
2022-12-23T22:32:29.717Z,12.00
2022-12-23T22:34:57.516Z,12.00
2022-12-23T22:37:27.233Z,12.00
2022-12-23T22:39:58.047Z,12.00
2022-12-23T22:42:33.917Z,12.00
2022-12-23T22:45:01.347Z,12.00
2022-12-23T22:47:31.765Z,12.00
2022-12-23T22:49:59.280Z,12.00
2022-12-23T22:52:29.337Z,12.00
2022-12-23T22:54:57.087Z,12.00
2022-12-23T22:57:24.558Z,12.10
2022-12-23T22:59:52.295Z,12.10
2022-12-23T23:02:19.738Z,12.10
2022-12-23T23:04:47.394Z,12.20
2022-12-23T23:07:15.241Z,12.20
2022-12-23T23:09:42.580Z,12.20
2022-12-23T23:12:10.321Z,12.20
2022-12-23T23:14:56.243Z,12.20
2022-12-23T23:17:28.604Z,12.20
2022-12-23T23:19:59.302Z,12.20
2022-12-23T23:22:26.543Z,12.20
2022-12-23T23:24:53.765Z,12.20
2022-12-23T23:27:21.042Z,12.20
2022-12-23T23:29:48.416Z,12.10
2022-12-23T23:32:15.561Z,12.10
2022-12-23T23:34:46.024Z,12.20
2022-12-23T23:37:18.514Z,12.20
2022-12-23T23:39:46.286Z,12.20
2022-12-23T23:42:17.964Z,12.20
2022-12-23T23:44:44.962Z,12.20
2022-12-23T23:47:18.439Z,12.20
2022-12-23T23:49:48.155Z,12.20
2022-12-23T23:52:15.778Z,12.20
2022-12-23T23:54:44.151Z,12.20
2022-12-23T23:57:11.263Z,12.20
2022-12-23T23:59:38.227Z,12.20
